Aérodrome :
LOGIN :

S'inscrire | Disclaimer

   EN    FR    IT 

 










Légende :    VFR   VFR Marginal   IFR   IFR Intensif   IFR Très Intensif
Visi : 
Plafond : 
>= 8 km
>= 3000ft
5 à 8 km
1000 à 3000 ft
1500m à 5 km
500 à 1000 ft
800 à 1500m
200 à 500 ft
< 800m
< 200 ft
Symboles :   Orages  Brouillard  Fortes neiges  Fortes précipitations  Vent > 20 kt
SIGMETs :   Divers  Orages  Givrage  Turbulence  Onde Orograph.  Cendres Volcan.







- Altitude de l'aérodrome : 659 ft
- Code IATA : LGG


EBLG - Liège

DERNIER METAR :
  • 281150Z 24008KT 9999 FEW022 BKN030 09/04 Q1014 TEMPO BKN014

METARs EXPIRÉS :
  • 281120Z 23008KT 200V270 9999 FEW022 SCT040 09/05 Q1014 TEMPO BKN012
  • 281050Z 24010KT 9999 FEW020 SCT040 07/04 Q1014 TEMPO BKN012
  • 281020Z 25007KT 9000 SCT017 SCT020 08/06 Q1014 TEMPO BKN012
  • 280950Z 27006KT 240V310 9999 SCT016 BKN019 08/04 Q1014 TEMPO BKN012
  • 280920Z 23004KT 200V260 9999 SCT014 BKN018 08/03 Q1014 TEMPO BKN012

TAF TAF EBLG
Valide du 28 à 12h jusqu'au 29 à 18h UTC


281120Z 2812/2918 31010KT 9999 FEW024
PROB30
TEMPO 2812/2816 4500 SHRA
BECMG 2823/2901 19005KT
PROB40
TEMPO 2902/2905 2000 BR
BECMG 2910/2912 07004KT
Pas de NOTAMs connus pour ce terrain.



MET'MAP, la Météo Aéronautique d'un coup d'oeil ! - Copyright ORBIFLY Décembre 2007 - Disclaimer

ORBIFLY MET'MAP TEAM :

Programmation & Développement : Alexandra Zaïnal
Conception & Développement : Baudouin d'Aumeries
Co-Programmation & Développement : Marc-Olivier Méhu
Soutien technique & logistique : Manuel Goepfert

Contact : metmap@orbifly.com




SOURCES & CREDITS :

   NOAA